createdAt,value
2023-03-14T00:00:31.953Z,44.65
2023-03-14T00:03:02.586Z,44.57
2023-03-14T00:05:33.431Z,44.62
2023-03-14T00:08:04.199Z,44.42
2023-03-14T00:10:34.924Z,44.32
2023-03-14T00:13:05.936Z,44.43
2023-03-14T00:15:37.847Z,44.26
2023-03-14T00:18:08.779Z,44.23
2023-03-14T00:20:39.429Z,44.27
2023-03-14T00:23:10.214Z,44.32
2023-03-14T00:25:40.990Z,44.29
2023-03-14T00:28:11.729Z,44.24
2023-03-14T00:30:42.516Z,44.53
2023-03-14T00:33:13.529Z,44.65
2023-03-14T00:35:44.498Z,44.66
2023-03-14T00:38:15.292Z,44.71
2023-03-14T00:40:46.111Z,45.00
2023-03-14T00:43:16.876Z,45.12
2023-03-14T00:45:47.818Z,45.02
2023-03-14T00:48:18.760Z,45.28
2023-03-14T00:50:50.102Z,45.32
2023-03-14T00:53:20.943Z,45.20
2023-03-14T00:55:52.210Z,45.39
2023-03-14T00:58:22.903Z,45.57
2023-03-14T01:00:53.673Z,45.51
2023-03-14T01:03:25.335Z,45.55
2023-03-14T01:05:56.179Z,45.57
2023-03-14T01:08:26.914Z,45.68
2023-03-14T01:10:57.635Z,45.62
2023-03-14T01:13:28.524Z,45.63
2023-03-14T01:16:02.938Z,45.64
2023-03-14T01:18:33.816Z,45.90
2023-03-14T01:21:05.109Z,45.69
2023-03-14T01:23:35.846Z,45.56
2023-03-14T01:26:07.093Z,45.83
2023-03-14T01:28:38.170Z,45.81
2023-03-14T01:31:11.582Z,46.21
2023-03-14T01:33:43.297Z,46.26
2023-03-14T01:36:15.170Z,46.21
2023-03-14T01:38:46.336Z,46.32
2023-03-14T01:41:18.897Z,46.43
2023-03-14T01:43:50.417Z,46.24
2023-03-14T01:46:41.543Z,46.13
2023-03-14T01:49:29.057Z,46.14
2023-03-14T01:52:04.176Z,46.14
2023-03-14T01:54:38.363Z,46.29
2023-03-14T01:57:13.857Z,46.11
2023-03-14T01:59:48.909Z,46.13
2023-03-14T02:02:20.690Z,46.30
2023-03-14T02:04:51.866Z,45.94
2023-03-14T02:07:28.081Z,45.69
2023-03-14T02:10:01.026Z,45.93
2023-03-14T02:12:31.906Z,45.64
2023-03-14T02:15:02.896Z,45.56
2023-03-14T02:17:34.059Z,45.52
2023-03-14T02:20:19.836Z,45.40
2023-03-14T02:22:51.017Z,45.27
2023-03-14T02:25:29.137Z,45.42
2023-03-14T02:28:00.612Z,45.27
2023-03-14T02:30:34.121Z,45.21
2023-03-14T02:33:08.796Z,45.14
2023-03-14T02:35:44.614Z,45.00
2023-03-14T02:38:21.818Z,45.02
2023-03-14T02:40:52.956Z,44.94
2023-03-14T02:43:23.682Z,44.97
2023-03-14T02:45:55.330Z,44.85
2023-03-14T02:48:29.126Z,44.73
2023-03-14T02:50:59.121Z,44.76
2023-03-14T02:53:32.437Z,44.70
2023-03-14T02:56:04.082Z,44.78
2023-03-14T02:58:35.083Z,44.67
2023-03-14T03:01:06.423Z,44.74
2023-03-14T03:03:37.433Z,44.56
2023-03-14T03:06:09.406Z,44.51
2023-03-14T03:08:40.286Z,44.35
2023-03-14T03:11:11.455Z,44.49
2023-03-14T03:13:42.193Z,44.53
2023-03-14T03:16:15.230Z,44.47
2023-03-14T03:18:46.362Z,44.53
2023-03-14T03:21:17.147Z,44.51
2023-03-14T03:23:47.867Z,44.46
2023-03-14T03:26:18.606Z,44.48
2023-03-14T03:28:49.227Z,44.30
2023-03-14T03:31:20.382Z,44.40
2023-03-14T03:33:51.111Z,44.45
2023-03-14T03:36:24.929Z,44.44
2023-03-14T03:38:54.194Z,44.49
2023-03-14T03:41:25.086Z,44.63
2023-03-14T03:43:56.188Z,44.73
2023-03-14T03:46:27.185Z,44.67
2023-03-14T03:49:01.122Z,44.84
2023-03-14T03:51:31.976Z,44.75
2023-03-14T03:54:02.911Z,44.69
2023-03-14T03:56:33.837Z,44.79
2023-03-14T03:59:04.708Z,44.85
2023-03-14T04:01:35.795Z,44.85
2023-03-14T04:04:06.805Z,45.01
2023-03-14T04:06:38.911Z,45.18
2023-03-14T04:09:09.938Z,45.06
2023-03-14T04:11:40.699Z,45.03
2023-03-14T04:14:11.903Z,45.11
2023-03-14T04:16:42.520Z,45.13
2023-03-14T04:19:13.379Z,45.03
2023-03-14T04:21:46.307Z,45.20
2023-03-14T04:24:17.316Z,45.19
2023-03-14T04:26:47.940Z,45.28
2023-03-14T04:29:19.238Z,45.34
2023-03-14T04:31:50.062Z,45.17
2023-03-14T04:34:20.873Z,45.23
2023-03-14T04:36:51.706Z,45.29
2023-03-14T04:39:22.453Z,45.54
2023-03-14T04:41:53.501Z,45.53
2023-03-14T04:44:24.236Z,45.63
2023-03-14T04:46:55.338Z,45.56
2023-03-14T04:49:26.557Z,45.54
2023-03-14T04:51:57.359Z,45.68
2023-03-14T04:54:31.445Z,45.64
2023-03-14T04:57:02.319Z,45.77
2023-03-14T04:59:33.267Z,45.87
2023-03-14T05:02:04.378Z,45.96
2023-03-14T05:04:35.335Z,45.75
2023-03-14T05:07:06.039Z,45.62
2023-03-14T05:09:36.698Z,45.80
2023-03-14T05:12:09.468Z,45.60
2023-03-14T05:14:40.781Z,45.54
2023-03-14T05:17:12.453Z,45.48
2023-03-14T05:19:43.349Z,45.58
2023-03-14T05:22:14.402Z,45.59
2023-03-14T05:24:45.118Z,45.54
2023-03-14T05:27:15.951Z,45.74
2023-03-14T05:29:46.612Z,45.62
2023-03-14T05:32:17.600Z,45.56
2023-03-14T05:34:48.704Z,45.67
2023-03-14T05:37:20.195Z,45.62
2023-03-14T05:39:51.014Z,45.53
2023-03-14T05:42:22.525Z,45.52
2023-03-14T05:44:53.286Z,45.53
2023-03-14T05:47:24.338Z,45.39
2023-03-14T05:49:55.080Z,45.50
2023-03-14T05:52:25.958Z,45.44
2023-03-14T05:54:57.000Z,45.55
2023-03-14T05:57:27.832Z,45.37
2023-03-14T05:59:58.781Z,45.33
2023-03-14T06:02:29.862Z,45.27
2023-03-14T06:05:00.575Z,45.44
2023-03-14T06:07:31.368Z,45.20
2023-03-14T06:10:02.289Z,45.21
2023-03-14T06:12:32.990Z,45.24
2023-03-14T06:15:04.128Z,45.07
2023-03-14T06:17:34.930Z,45.34
2023-03-14T06:20:06.384Z,45.20
2023-03-14T06:22:37.036Z,45.16
2023-03-14T06:25:09.304Z,45.27
2023-03-14T06:27:40.152Z,45.08
2023-03-14T06:30:13.132Z,44.98
2023-03-14T06:32:44.003Z,45.15
2023-03-14T06:35:14.916Z,45.01
2023-03-14T06:37:45.955Z,45.01
2023-03-14T06:40:19.050Z,45.07
2023-03-14T06:42:49.992Z,44.97
2023-03-14T06:45:20.933Z,44.81
2023-03-14T06:47:51.624Z,45.15
2023-03-14T06:50:23.450Z,45.03
2023-03-14T06:52:54.650Z,45.11
2023-03-14T06:55:25.399Z,44.87
2023-03-14T06:57:56.508Z,44.82
2023-03-14T07:00:28.382Z,45.04
2023-03-14T07:02:59.172Z,45.05
2023-03-14T07:05:30.012Z,45.14
2023-03-14T07:08:00.824Z,45.29
2023-03-14T07:10:31.582Z,45.20
2023-03-14T07:13:02.624Z,44.98
2023-03-14T07:15:33.386Z,45.20
2023-03-14T07:18:04.190Z,45.29
2023-03-14T07:20:34.945Z,45.29
2023-03-14T07:23:05.817Z,45.07
2023-03-14T07:25:36.485Z,45.14
2023-03-14T07:28:07.390Z,45.09
2023-03-14T07:30:38.049Z,45.10
2023-03-14T07:33:10.453Z,44.79
2023-03-14T07:35:42.627Z,44.88
2023-03-14T07:38:13.419Z,44.93
2023-03-14T07:40:44.130Z,44.63
2023-03-14T07:43:15.213Z,44.75
2023-03-14T07:45:51.278Z,44.58
2023-03-14T07:48:22.936Z,44.44
2023-03-14T07:50:55.140Z,44.37
2023-03-14T07:53:27.069Z,44.29
2023-03-14T07:55:58.183Z,44.48
2023-03-14T07:58:29.221Z,44.27
2023-03-14T08:01:02.221Z,44.20
2023-03-14T08:03:33.194Z,44.17
2023-03-14T08:06:03.864Z,44.15
2023-03-14T08:08:34.874Z,44.17
2023-03-14T08:11:10.262Z,44.13
2023-03-14T08:13:41.642Z,44.04
2023-03-14T08:16:13.167Z,44.18
2023-03-14T08:18:44.033Z,44.13
2023-03-14T08:21:15.309Z,44.31
2023-03-14T08:23:46.040Z,44.15
2023-03-14T08:26:16.856Z,44.16
2023-03-14T08:28:47.609Z,44.28
2023-03-14T08:31:18.450Z,44.22
2023-03-14T08:33:49.411Z,44.25
2023-03-14T08:36:23.771Z,44.14
2023-03-14T08:38:55.322Z,44.33
2023-03-14T08:41:27.532Z,44.29
2023-03-14T08:43:58.290Z,44.32
2023-03-14T08:46:29.152Z,44.40
2023-03-14T08:49:00.116Z,44.23
2023-03-14T08:51:31.198Z,44.05
2023-03-14T08:54:02.132Z,44.16
2023-03-14T08:56:32.791Z,44.11
2023-03-14T08:59:03.511Z,44.16
2023-03-14T09:01:34.371Z,44.30
2023-03-14T09:04:05.332Z,44.36
2023-03-14T09:06:36.657Z,44.48
2023-03-14T09:09:07.377Z,44.60
2023-03-14T09:11:38.371Z,44.69
2023-03-14T09:14:09.399Z,44.84
2023-03-14T09:16:40.328Z,44.78
2023-03-14T09:19:11.478Z,44.94
2023-03-14T09:21:42.225Z,45.11
2023-03-14T09:24:13.104Z,45.12
2023-03-14T09:26:43.832Z,45.02
2023-03-14T09:29:14.822Z,45.00
2023-03-14T09:31:45.614Z,45.13
2023-03-14T09:34:16.505Z,45.09
2023-03-14T09:36:47.311Z,45.18
2023-03-14T09:39:18.827Z,45.29
2023-03-14T09:41:53.059Z,45.24
2023-03-14T09:44:27.769Z,45.01
2023-03-14T09:47:03.235Z,45.28
2023-03-14T09:49:36.308Z,45.22
2023-03-14T09:52:14.688Z,45.25
2023-03-14T09:54:51.585Z,45.10
2023-03-14T09:57:25.661Z,45.01
2023-03-14T10:00:00.824Z,44.79
2023-03-14T10:02:36.883Z,45.10
2023-03-14T10:05:15.905Z,44.89
2023-03-14T10:07:47.205Z,44.87
2023-03-14T10:10:22.117Z,44.78
2023-03-14T10:12:59.472Z,44.81
2023-03-14T10:15:33.508Z,44.66
2023-03-14T10:18:11.029Z,44.79
2023-03-14T10:20:43.574Z,44.62
2023-03-14T10:23:28.915Z,44.66
2023-03-14T10:26:10.739Z,44.76
2023-03-14T10:28:45.651Z,44.64
2023-03-14T10:31:17.531Z,44.65
2023-03-14T10:34:02.179Z,44.65
2023-03-14T10:36:35.809Z,44.54
2023-03-14T10:39:28.006Z,44.48
2023-03-14T10:42:05.312Z,44.41
2023-03-14T10:44:38.462Z,44.52
2023-03-14T10:47:17.808Z,44.49
2023-03-14T10:49:48.642Z,44.40
2023-03-14T10:52:50.895Z,44.37
2023-03-14T10:55:16.748Z,44.34
2023-03-14T10:57:47.973Z,44.34
2023-03-14T11:00:23.047Z,44.27
2023-03-14T11:03:07.091Z,44.32
2023-03-14T11:05:46.080Z,44.33
2023-03-14T11:08:26.052Z,44.06
2023-03-14T11:11:05.204Z,43.97
2023-03-14T11:13:41.306Z,43.80
2023-03-14T11:16:21.261Z,44.07
2023-03-14T11:19:15.554Z,43.94
2023-03-14T11:21:54.979Z,43.85
2023-03-14T11:24:58.784Z,43.87
2023-03-14T11:27:37.970Z,43.79
2023-03-14T11:30:17.896Z,43.83
2023-03-14T11:32:53.129Z,43.71
2023-03-14T11:35:32.487Z,43.83
2023-03-14T11:38:12.692Z,43.91
2023-03-14T11:40:44.667Z,43.63
2023-03-14T11:43:20.982Z,43.73
2023-03-14T11:45:56.956Z,43.57
2023-03-14T11:48:38.061Z,43.67
2023-03-14T11:51:15.893Z,43.53
2023-03-14T11:53:56.198Z,43.72
2023-03-14T11:56:35.657Z,43.76
2023-03-14T11:59:12.008Z,43.71
2023-03-14T12:01:54.836Z,43.65
2023-03-14T12:04:44.238Z,43.70
2023-03-14T12:07:22.584Z,43.65
2023-03-14T12:09:55.173Z,43.63
2023-03-14T12:12:29.198Z,43.35
2023-03-14T12:15:02.548Z,43.54
2023-03-14T12:17:40.190Z,43.36
2023-03-14T12:20:22.227Z,43.44
2023-03-14T12:22:55.795Z,43.58
2023-03-14T12:25:29.245Z,43.52
2023-03-14T12:28:23.662Z,43.61
2023-03-14T12:30:54.423Z,43.45
2023-03-14T12:33:35.370Z,43.57
2023-03-14T12:37:02.872Z,43.46
2023-03-14T12:39:45.626Z,43.58
2023-03-14T12:42:24.003Z,43.51
2023-03-14T12:45:23.525Z,43.78
2023-03-14T12:48:13.093Z,43.76
2023-03-14T12:50:48.360Z,43.56
2023-03-14T12:54:06.544Z,43.64
2023-03-14T12:57:07.268Z,43.49
2023-03-14T12:59:41.749Z,43.57
2023-03-14T13:02:30.876Z,43.52
2023-03-14T13:05:14.540Z,43.44
2023-03-14T13:08:07.355Z,43.62
2023-03-14T13:10:47.343Z,43.34
2023-03-14T13:13:24.464Z,43.43
2023-03-14T13:16:01.365Z,43.31
2023-03-14T13:18:36.394Z,43.41
2023-03-14T13:21:13.497Z,43.48
2023-03-14T13:23:56.068Z,43.28
2023-03-14T13:26:34.402Z,43.49
2023-03-14T13:29:17.370Z,43.40
2023-03-14T13:31:50.376Z,43.31
2023-03-14T13:34:22.237Z,43.40
2023-03-14T13:36:55.505Z,43.49
2023-03-14T13:39:29.347Z,43.47
2023-03-14T13:42:03.058Z,43.24
2023-03-14T13:44:36.329Z,43.27
2023-03-14T13:47:12.423Z,43.43
2023-03-14T13:49:43.662Z,43.32
2023-03-14T13:52:30.151Z,43.47
2023-03-14T13:55:04.337Z,43.52
2023-03-14T13:57:49.311Z,43.49
2023-03-14T14:00:27.999Z,43.36
2023-03-14T14:03:01.114Z,43.52
2023-03-14T14:05:33.369Z,43.47
2023-03-14T14:08:06.593Z,43.52
2023-03-14T14:10:40.217Z,43.69
2023-03-14T14:13:17.423Z,43.72
2023-03-14T14:15:51.531Z,43.79
2023-03-14T14:18:26.481Z,43.94
2023-03-14T14:20:58.453Z,43.95
2023-03-14T14:23:32.759Z,44.09
2023-03-14T14:26:08.961Z,44.27
2023-03-14T14:28:41.659Z,44.13
2023-03-14T14:31:25.274Z,44.18
2023-03-14T14:34:01.274Z,44.22
2023-03-14T14:36:38.814Z,44.15
2023-03-14T14:39:17.161Z,44.44
2023-03-14T14:41:50.528Z,44.18
2023-03-14T14:44:34.448Z,44.01
2023-03-14T14:47:06.884Z,44.17
2023-03-14T14:49:38.864Z,44.07
2023-03-14T14:52:15.535Z,44.13
2023-03-14T14:54:50.718Z,43.85
2023-03-14T14:57:25.097Z,43.76
2023-03-14T14:59:59.509Z,43.86
2023-03-14T15:02:39.008Z,43.85
2023-03-14T15:05:17.017Z,43.81
2023-03-14T15:07:49.195Z,44.02
2023-03-14T15:10:22.566Z,43.90
2023-03-14T15:12:54.333Z,43.89
2023-03-14T15:15:25.136Z,43.84
2023-03-14T15:17:56.202Z,43.83
2023-03-14T15:20:27.015Z,43.79
2023-03-14T15:22:58.067Z,43.74
2023-03-14T15:25:51.367Z,43.88
2023-03-14T15:28:22.091Z,43.98
2023-03-14T15:30:54.538Z,43.84
2023-03-14T15:33:26.494Z,43.81
2023-03-14T15:35:58.291Z,43.87
2023-03-14T15:38:29.261Z,43.78
2023-03-14T15:41:00.135Z,44.00
2023-03-14T15:43:30.981Z,43.67
2023-03-14T15:46:02.052Z,43.84
2023-03-14T15:48:33.270Z,43.83
2023-03-14T15:51:04.414Z,43.82
2023-03-14T15:53:37.950Z,43.88
2023-03-14T15:56:13.160Z,43.52
2023-03-14T15:58:47.650Z,43.60
2023-03-14T16:01:19.409Z,43.49
2023-03-14T16:03:52.297Z,43.66
2023-03-14T16:06:23.628Z,43.72
2023-03-14T16:08:55.286Z,43.58
2023-03-14T16:11:26.093Z,43.59
2023-03-14T16:13:57.327Z,43.55
2023-03-14T16:16:28.514Z,43.73
2023-03-14T16:18:59.521Z,43.64
2023-03-14T16:21:30.370Z,43.52
2023-03-14T16:24:03.363Z,43.31
2023-03-14T16:26:36.733Z,43.66
2023-03-14T16:29:07.551Z,43.59
2023-03-14T16:31:43.321Z,43.48
2023-03-14T16:34:14.508Z,43.52
2023-03-14T16:36:46.043Z,43.69
2023-03-14T16:39:17.093Z,43.46
2023-03-14T16:41:48.258Z,43.46
2023-03-14T16:44:22.039Z,43.48
2023-03-14T16:46:52.923Z,43.35
2023-03-14T16:49:24.113Z,43.38
2023-03-14T16:51:55.457Z,43.43
2023-03-14T16:54:26.854Z,43.42
2023-03-14T16:56:58.300Z,43.41
2023-03-14T16:59:30.313Z,43.45
2023-03-14T17:02:01.924Z,43.40
2023-03-14T17:04:32.784Z,43.38
2023-03-14T17:07:03.839Z,43.31
2023-03-14T17:09:35.261Z,43.32
2023-03-14T17:12:07.126Z,43.27
2023-03-14T17:14:39.138Z,43.30
2023-03-14T17:17:10.558Z,43.23
2023-03-14T17:19:41.587Z,43.39
2023-03-14T17:22:23.375Z,43.22
2023-03-14T17:24:55.650Z,43.11
2023-03-14T17:27:26.711Z,43.13
2023-03-14T17:29:57.677Z,43.17
2023-03-14T17:32:29.460Z,43.22
2023-03-14T17:35:00.604Z,43.16
2023-03-14T17:37:32.015Z,43.09
2023-03-14T17:40:04.493Z,43.10
2023-03-14T17:42:35.676Z,42.95
2023-03-14T17:45:07.933Z,42.89
2023-03-14T17:47:38.802Z,42.94
2023-03-14T17:50:11.496Z,42.71
2023-03-14T17:52:42.984Z,42.76
2023-03-14T17:55:14.687Z,42.60
2023-03-14T17:57:45.490Z,42.60
2023-03-14T18:00:18.567Z,42.49
2023-03-14T18:02:49.608Z,42.48
2023-03-14T18:05:20.997Z,42.31
2023-03-14T18:07:52.297Z,42.27
2023-03-14T18:10:24.817Z,42.16
2023-03-14T18:12:55.936Z,42.27
2023-03-14T18:15:26.973Z,42.19
2023-03-14T18:17:57.849Z,42.32
2023-03-14T18:20:28.956Z,42.32
2023-03-14T18:23:01.827Z,42.21
2023-03-14T18:25:32.903Z,42.21
2023-03-14T18:28:03.711Z,42.05
2023-03-14T18:30:34.757Z,42.01
2023-03-14T18:33:05.743Z,41.97
2023-03-14T18:35:37.919Z,42.02
2023-03-14T18:38:08.973Z,42.01
2023-03-14T18:40:40.405Z,41.99
2023-03-14T18:43:11.178Z,41.98
2023-03-14T18:45:42.214Z,42.00
2023-03-14T18:48:13.274Z,42.03
2023-03-14T18:50:44.503Z,41.94
2023-03-14T18:53:15.496Z,41.91
2023-03-14T18:55:46.899Z,41.91
2023-03-14T18:58:21.410Z,41.97
2023-03-14T19:00:52.443Z,42.11
2023-03-14T19:03:26.034Z,42.05
2023-03-14T19:05:58.275Z,42.16
2023-03-14T19:08:30.028Z,42.11
2023-03-14T19:11:02.138Z,42.15
2023-03-14T19:13:33.449Z,42.30
2023-03-14T19:16:05.020Z,42.22
2023-03-14T19:18:36.344Z,42.34
2023-03-14T19:21:09.564Z,42.20
2023-03-14T19:23:42.116Z,42.37
2023-03-14T19:26:16.352Z,42.39
2023-03-14T19:28:47.519Z,42.31
2023-03-14T19:31:18.701Z,42.22
2023-03-14T19:33:50.070Z,42.36
2023-03-14T19:36:26.633Z,42.40
2023-03-14T19:38:57.898Z,42.42
2023-03-14T19:41:29.762Z,42.42
2023-03-14T19:44:01.163Z,42.46
2023-03-14T19:46:33.445Z,42.61
2023-03-14T19:49:05.813Z,42.58
2023-03-14T19:51:36.788Z,42.57
2023-03-14T19:54:08.020Z,42.78
2023-03-14T19:56:40.430Z,43.05
2023-03-14T19:59:11.558Z,43.08
2023-03-14T20:01:46.628Z,43.11
2023-03-14T20:04:17.845Z,43.20
2023-03-14T20:06:49.605Z,43.14
2023-03-14T20:09:20.732Z,43.18
2023-03-14T20:11:52.213Z,43.17
2023-03-14T20:14:23.273Z,43.21
2023-03-14T20:16:54.889Z,43.22
2023-03-14T20:19:26.500Z,43.22
2023-03-14T20:21:57.795Z,43.18
2023-03-14T20:24:28.917Z,43.19
2023-03-14T20:27:03.846Z,43.36
2023-03-14T20:29:35.530Z,43.41
2023-03-14T20:32:09.615Z,43.31
2023-03-14T20:34:42.401Z,43.30
2023-03-14T20:37:13.711Z,43.29
2023-03-14T20:39:48.249Z,43.42
2023-03-14T20:42:19.471Z,43.47
2023-03-14T20:44:50.795Z,43.42
2023-03-14T20:47:21.863Z,43.37
2023-03-14T20:49:53.246Z,43.26
2023-03-14T20:52:25.042Z,43.38
2023-03-14T20:54:59.093Z,43.29
2023-03-14T20:57:30.558Z,43.31
2023-03-14T21:00:01.875Z,43.36
2023-03-14T21:05:23.426Z,43.37
2023-03-14T21:07:54.533Z,43.41
2023-03-14T21:10:26.169Z,43.30
2023-03-14T21:12:57.788Z,43.32
2023-03-14T21:15:31.643Z,43.49
2023-03-14T21:18:05.720Z,43.48
2023-03-14T21:20:37.811Z,43.42
2023-03-14T21:23:11.257Z,43.41
2023-03-14T21:25:44.535Z,43.55
2023-03-14T21:28:15.677Z,43.54
2023-03-14T21:30:47.480Z,43.70
2023-03-14T21:33:18.518Z,43.80
2023-03-14T21:35:49.560Z,43.75
2023-03-14T21:38:20.867Z,43.82
2023-03-14T21:40:57.192Z,43.75
2023-03-14T21:43:29.379Z,43.87
2023-03-14T21:46:01.069Z,43.82
2023-03-14T21:48:32.221Z,43.87
2023-03-14T21:51:06.528Z,43.91
2023-03-14T21:53:39.078Z,43.85
2023-03-14T21:56:10.468Z,43.85
2023-03-14T21:58:41.404Z,43.90
2023-03-14T22:01:13.572Z,44.02
2023-03-14T22:03:46.046Z,43.93
2023-03-14T22:06:17.096Z,43.92
2023-03-14T22:08:48.337Z,44.01
2023-03-14T22:11:19.405Z,44.07
2023-03-14T22:13:50.226Z,44.13
2023-03-14T22:16:21.121Z,44.16
2023-03-14T22:18:53.066Z,44.15
2023-03-14T22:21:23.932Z,44.17
2023-03-14T22:23:54.867Z,44.28
2023-03-14T22:26:26.168Z,44.31
2023-03-14T22:28:57.103Z,44.45
2023-03-14T22:31:28.316Z,44.40
2023-03-14T22:33:59.113Z,44.51
2023-03-14T22:36:30.783Z,44.52
2023-03-14T22:39:01.907Z,44.60
2023-03-14T22:41:32.956Z,44.62
2023-03-14T22:44:04.019Z,44.71
2023-03-14T22:46:34.966Z,44.81
2023-03-14T22:49:05.977Z,44.79
2023-03-14T22:51:37.083Z,44.79
2023-03-14T22:54:08.381Z,44.77
2023-03-14T22:56:39.311Z,44.87
2023-03-14T22:59:10.560Z,45.01
2023-03-14T23:01:41.504Z,44.97
2023-03-14T23:04:12.502Z,45.13
2023-03-14T23:06:43.584Z,45.02
2023-03-14T23:09:14.497Z,45.08
2023-03-14T23:11:47.012Z,45.14
2023-03-14T23:14:18.039Z,45.12
2023-03-14T23:16:48.848Z,45.13
2023-03-14T23:19:25.882Z,45.19
2023-03-14T23:21:57.382Z,45.24
2023-03-14T23:24:28.551Z,45.05
2023-03-14T23:26:59.472Z,45.04
2023-03-14T23:29:30.479Z,45.12
2023-03-14T23:32:01.223Z,45.05
2023-03-14T23:34:31.917Z,44.97
2023-03-14T23:37:02.811Z,45.20
2023-03-14T23:39:33.499Z,45.14
2023-03-14T23:42:04.174Z,45.17
2023-03-14T23:44:35.535Z,45.09
2023-03-14T23:47:07.288Z,45.18
2023-03-14T23:49:38.406Z,45.21
2023-03-14T23:52:09.236Z,45.14
2023-03-14T23:54:40.575Z,45.20
2023-03-14T23:57:11.531Z,45.06
2023-03-14T23:59:42.910Z,45.16
